Pagrindinis puslapis
METAR-TAF:

METAR-TAF

Oro uostai :

Mastrichtas-Achenas, Nyderlandai

platuma: 50-55N, ilguma: 005-47E, Aukštis: 114 m

Dabartinis oras

Ataskaita buvo paskelbta 11 minutes, ne 03:25 UTC
Vėjas 5 kt iš Rytų/Šiaurės Rytų
Temperatūra 9°C
Drėgmė 71%
Slėgis 1022 hPa
Matomumas 10 km arba daugiau

METAR: EHBK 310325Z AUTO 07005KT 9999 NCD 09/04 Q1022

Laikas: 05:36 (03:36 UTC)

Prognozė

Ataskaita buvo paskelbta 4 valandos ir 38 minutes, ne 22:58 UTC
Prognozė galioja nuo 31 metu 00 UTC su 01 metu 06 UTC
Vėjas 5 kt iš Rytų
Matomumas 10 km arba daugiau
nėra debesų žemiau 1500 m ir nėra kamuolinių lietaus debesų
Tapsmas
nuo 31 metu 07 UTC su 31 metu 10 UTC
Vėjas 12 kt iš Rytų/Šiaurės Rytų su gūsio iki 22 kt
Tapsmas
nuo 31 metu 17 UTC su 31 metu 20 UTC
Vėjas 6 kt iš Rytų

TAF: EHBK 302258Z 3100/0106 08005KT CAVOK BECMG 3107/3110 06012G22KT BECMG 3117/3120 08006KT

Orai ataskaitas ir orų prognozės (METAR, TAF).

turimą stotys yra geltonos ir raudonos taškus žemėlapyje.

Perkelti pele per norėdami pamatyti stoties vardą.

Tada spustelėkite, norėdami matyti oro stebėjimo ir prognozės.

Norėdami pakeisti žemėlapį: spustelėkite ant žalios mygtukų su juodo kryžiaus žemyn,; žalią mygtuką su brūkšneliu, jei norite nutolinti; arba žalių rodyklių gretimoms žemėlapius.


METAR-TAF: